NCAR-RAP Real-Time Weather Data

Output produced by METARs form (18 August 2018  01:02 UTC)
found at http://weather.rap.ucar.edu/surface/
 
RJOA 180000Z 10007KT 070V130 9999 FEW025 BKN/// 22/13 Q1013
RJOA 172300Z 07008KT 040V110 9999 FEW020 SCT/// 21/12 Q1013
RJOA 172200Z 06009KT 9999 FEW020 SCT/// 19/12 Q1013
RJOA 172110Z 06008KT CAVOK 18/12 Q1013 RMK A2992
RJOA 171300Z 04007KT 9999 FEW020 20/10 Q1013
RJOA 171200Z 04009KT 9999 FEW020 21/11 Q1013
RJOA 171100Z 03011KT 010V070 9999 FEW025 22/11 Q1012
RJOA 171000Z 04008KT 9999 FEW025 23/11 Q1011
RJOA 170900Z 05010KT 9999 FEW025 26/12 Q1010
RJOA 170817Z 07010KT 9999 FEW025 SCT035 27/11 Q1010 RMK 1CU025 3CU035 A2984
RJOA 170800Z 13005KT 080V170 9999 FEW025 SCT035 27/15 Q1010
RJOA 170700Z 12005KT 090V160 9999 FEW025 SCT060 27/15 Q1010
RJOA 170600Z 09007KT 020V150 9999 FEW025 SCT035 28/14 Q1010
RJOA 170500Z 12007KT 040V170 9999 FEW025 SCT035 28/14 Q1011
RJOA 170431Z 10010KT 050V150 9999 FEW025 SCT035 27/13 Q1011 RMK 1CU025 4CU035 A2986
RJOA 170416Z 04009KT 360V060 9999 FEW025 SCT035 28/13 Q1011 RMK 1CU025 4CU035 A2987
RJOA 170400Z 10010KT 060V150 9999 FEW025 SCT035 28/14 Q1011
RJOA 170300Z 07007KT 020V120 9999 FEW025 SCT035 26/14 Q1012
RJOA 170200Z 07010KT 040V110 9999 FEW025 BKN035 27/16 Q1012
RJOA 170100Z 09006KT 050V130 9999 FEW025 BKN030 24/16 Q1013
RJOA 170000Z 06011KT 040V110 9999 FEW025 24/15 Q1013
RJOA 162300Z 05007KT 020V080 9999 FEW025 23/15 Q1013
RJOA 162200Z 07008KT 9999 FEW020 BKN050 21/15 Q1013
RJOA 162110Z 02005KT 350V060 9999 FEW020 BKN045 21/15 Q1013 RMK 1CU020 6SC045 A2991
RJOA 161300Z 34007KT 320V030 9999 FEW010 BKN060 24/21 Q1012
RJOA 161200Z 01003KT 330V030 9999 PRFG FEW000 SCT030 BKN050 24/21 Q1012
RJOA 161100Z VRB03KT 9999 BCFG FEW000 SCT070 BKN/// 25/22 Q1011
RJOA 161000Z 28004KT 250V340 9999 BCFG FEW000 SCT060 BKN080 24/23 Q1011
RJOA 160900Z 28004KT 250V310 9999 BCFG FEW000 SCT070 BKN/// 24/23 Q1010
RJOA 160800Z 29005KT 9999 BCFG FEW000 SCT080 BKN170 24/23 Q1010
RJOA 160712Z 26004KT 240V300 5000 -SHRA BCFG BR FEW000 SCT003 BKN020 24/23 Q1010 RMK 1ST000 3ST003 5CU020 A2985 FG BANK SE-S AND SW-W
RJOA 160700Z 26004KT 2500 -SHRA BCFG BR FEW000 SCT003 BKN006 FEW020CB 24/23 Q1010
RJOA 160641Z VRB02KT 0500 R10/P1800N -SHRA FG FEW000 SCT001 BKN004 FEW020CB 24/23 Q1010 RMK 1ST000 3ST001 5ST004 1CB020 A2985 CB 15KM S MOV S
RJOA 160632Z VRB02KT 0800 R10/P1800N -SHRA FG FEW000 SCT005 BKN015 FEW020CB 24/23 Q1011 RMK 1ST000 3ST005 7CU015 1CB020 A2985 CB 10KM S MOV S
RJOA 160620Z 31004KT 1500 R10/P1800N -SHRA BCFG BR FEW000 SCT005 BKN015 FEW020CB 24/23 Q1010 RMK 1ST000 3ST005 7CU015 1CB020 A2985 CB 10KM S MOV SE
RJOA 160609Z 31004KT 280V350 5000 R10/P1800N TSRA BCFG BR FEW000 SCT010 BKN015 FEW020CB 25/23 Q1011 RMK 1ST000 4CU010 7CU015 2CB020 A2985 FBL TS 10KM SE MOV SE FG BANK E-SE AND SW
RJOA 160600Z 31004KT 280V340 7000 -TSRA BCFG FEW000 SCT010 BKN015 FEW020CB 25/23 Q1011
RJOA 160550Z 33004KT 280V350 5000 -TSRA BCFG BR FEW000 BKN010 BKN015 FEW020CB 25/23 Q1010 RMK 1ST000 5CU010 7CU015 2CB020 A2985 FBL TS 5KM SE MOV SE FG BANK E-SE AND SW-W
RJOA 160533Z 34005KT 300V020 4500 SHRA BCFG BR FEW000 BKN010 BKN015 SCT020CB 25/23 Q1010 RMK 1ST000 5CU010 7CU015 3CB020 A2985 CB OHD MOV E FG BANK E-SE AND SW-W
RJOA 160500Z 36004KT 320V040 9999 FEW010 BKN015 FEW020CB BKN080 27/23 Q1010
RJOA 160436Z 31004KT 260V340 9999 -TSRA SCT010 BKN015 FEW020CB BKN080 27/23 Q1010 RMK 3CU010 5CU015 2CB020 7AC080 A2985 FBL TS 15KM N MOV SE
RJOA 160400Z 27006KT 230V290 9999 SCT010 BKN015 FEW020CB 27/23 Q1010
RJOA 160300Z 21004KT 150V280 7000 -SHRA FEW008 SCT010 BKN020 25/24 Q1010
RJOA 160235Z 25007KT 190V270 4000 SHRA BR FEW008 SCT020 BKN040 25/23 Q1011 RMK 1ST008 3CU020 5CU040 A2987
RJOA 160230Z 25007KT 5000 SHRA BR FEW008 SCT020 BKN040 25/23 Q1011 RMK 1ST008 3CU020 5CU040 A2988
RJOA 160200Z 25006KT 200V270 9999 FEW008 SCT020 FEW025CB BKN110 26/24 Q1011
RJOA 160100Z 21004KT 160V260 9999 VCSH FEW002 SCT020 BKN050 26/23 Q1011
RJOA 160000Z 23004KT 170V260 9999 FEW002 SCT020 BKN090 26/23 Q1011
RJOA 152300Z 27004KT 240V300 9999 BCFG FEW000 SCT100 BKN160 26/23 Q1011
RJOA 152200Z 27003KT 9999 BCFG FEW000 SCT090 BKN/// 24/22 Q1010
RJOA 152132Z 27003KT 6000 BCFG FEW000 SCT080 BKN/// 24/23 Q1010 RMK 1ST000 4AC080 A2984 FG BANK E-S AND SW-W
RJOA 152122Z VRB02KT 2000 R10/P1800N BCFG FEW000 SCT002 BKN080 23/23 Q1010 RMK 1ST000 3ST002 5AC080 A2984 FG ALL QUAD
RJOA 152110Z VRB01KT 0500 R10/P1800N FG FEW000 SCT001 BKN002 23/22 Q1010 RMK 1ST000 3ST001 5ST002 A2983